sensor_id;sensor_type;location;lat;lon;timestamp;P1;durP1;ratioP1;P2;durP2;ratioP2
38529;SDS011;24301;54.332;48.386;2023-08-06T00:02:23;5.75;;;4.05;;
38529;SDS011;24301;54.332;48.386;2023-08-06T00:04:49;5.18;;;4.65;;
38529;SDS011;24301;54.332;48.386;2023-08-06T00:07:15;4.70;;;4.05;;
38529;SDS011;24301;54.332;48.386;2023-08-06T00:09:41;6.32;;;3.85;;
38529;SDS011;24301;54.332;48.386;2023-08-06T00:12:07;5.45;;;4.25;;
38529;SDS011;24301;54.332;48.386;2023-08-06T00:14:32;5.63;;;4.28;;
38529;SDS011;24301;54.332;48.386;2023-08-06T00:16:58;6.50;;;5.75;;
38529;SDS011;24301;54.332;48.386;2023-08-06T00:19:24;5.53;;;4.97;;
38529;SDS011;24301;54.332;48.386;2023-08-06T00:21:50;8.00;;;4.82;;
38529;SDS011;24301;54.332;48.386;2023-08-06T00:24:16;4.93;;;4.43;;
38529;SDS011;24301;54.332;48.386;2023-08-06T00:26:41;6.88;;;4.05;;
38529;SDS011;24301;54.332;48.386;2023-08-06T00:29:07;6.85;;;4.30;;
38529;SDS011;24301;54.332;48.386;2023-08-06T00:31:33;5.35;;;4.68;;
38529;SDS011;24301;54.332;48.386;2023-08-06T00:33:59;4.40;;;3.92;;
38529;SDS011;24301;54.332;48.386;2023-08-06T00:36:24;5.00;;;4.00;;
38529;SDS011;24301;54.332;48.386;2023-08-06T00:38:53;4.53;;;3.78;;
38529;SDS011;24301;54.332;48.386;2023-08-06T00:41:18;7.78;;;4.30;;
38529;SDS011;24301;54.332;48.386;2023-08-06T00:43:44;5.28;;;4.03;;
38529;SDS011;24301;54.332;48.386;2023-08-06T00:46:11;5.05;;;4.45;;
38529;SDS011;24301;54.332;48.386;2023-08-06T00:48:37;4.75;;;3.85;;
38529;SDS011;24301;54.332;48.386;2023-08-06T00:51:03;5.03;;;3.47;;
38529;SDS011;24301;54.332;48.386;2023-08-06T00:53:29;5.10;;;4.50;;
38529;SDS011;24301;54.332;48.386;2023-08-06T00:55:54;6.95;;;4.35;;
38529;SDS011;24301;54.332;48.386;2023-08-06T00:58:20;7.82;;;6.80;;
38529;SDS011;24301;54.332;48.386;2023-08-06T01:00:46;8.82;;;6.10;;
38529;SDS011;24301;54.332;48.386;2023-08-06T01:03:14;6.47;;;4.63;;
38529;SDS011;24301;54.332;48.386;2023-08-06T01:05:41;8.00;;;6.95;;
38529;SDS011;24301;54.332;48.386;2023-08-06T01:08:52;6.80;;;5.22;;
38529;SDS011;24301;54.332;48.386;2023-08-06T01:16:52;4.20;;;3.80;;
38529;SDS011;24301;54.332;48.386;2023-08-06T01:19:21;4.80;;;3.90;;
38529;SDS011;24301;54.332;48.386;2023-08-06T01:21:47;4.78;;;3.67;;
38529;SDS011;24301;54.332;48.386;2023-08-06T01:24:13;3.78;;;3.40;;
38529;SDS011;24301;54.332;48.386;2023-08-06T01:26:42;4.55;;;3.80;;
38529;SDS011;24301;54.332;48.386;2023-08-06T01:31:43;7.07;;;4.45;;
38529;SDS011;24301;54.332;48.386;2023-08-06T01:34:14;5.78;;;4.63;;
38529;SDS011;24301;54.332;48.386;2023-08-06T01:36:43;4.50;;;3.95;;
38529;SDS011;24301;54.332;48.386;2023-08-06T01:39:10;5.90;;;4.30;;
38529;SDS011;24301;54.332;48.386;2023-08-06T01:41:36;5.78;;;3.97;;
38529;SDS011;24301;54.332;48.386;2023-08-06T01:44:02;5.25;;;3.75;;
38529;SDS011;24301;54.332;48.386;2023-08-06T01:46:28;6.25;;;4.43;;
38529;SDS011;24301;54.332;48.386;2023-08-06T01:48:54;4.90;;;3.83;;
38529;SDS011;24301;54.332;48.386;2023-08-06T01:51:20;5.78;;;4.10;;
38529;SDS011;24301;54.332;48.386;2023-08-06T01:53:45;5.32;;;4.75;;
38529;SDS011;24301;54.332;48.386;2023-08-06T01:56:11;5.38;;;4.50;;
38529;SDS011;24301;54.332;48.386;2023-08-06T01:58:37;5.03;;;4.53;;
38529;SDS011;24301;54.332;48.386;2023-08-06T02:01:03;6.30;;;4.28;;
38529;SDS011;24301;54.332;48.386;2023-08-06T02:03:28;3.88;;;3.50;;
38529;SDS011;24301;54.332;48.386;2023-08-06T02:05:55;4.53;;;3.65;;
38529;SDS011;24301;54.332;48.386;2023-08-06T02:08:20;3.92;;;3.28;;
38529;SDS011;24301;54.332;48.386;2023-08-06T02:10:46;4.20;;;3.63;;
38529;SDS011;24301;54.332;48.386;2023-08-06T02:13:12;5.63;;;4.28;;
38529;SDS011;24301;54.332;48.386;2023-08-06T02:15:44;5.30;;;4.43;;
38529;SDS011;24301;54.332;48.386;2023-08-06T02:18:13;5.65;;;3.60;;
38529;SDS011;24301;54.332;48.386;2023-08-06T02:20:40;4.15;;;3.53;;
38529;SDS011;24301;54.332;48.386;2023-08-06T02:23:06;4.15;;;3.75;;
38529;SDS011;24301;54.332;48.386;2023-08-06T02:25:32;3.92;;;3.50;;
38529;SDS011;24301;54.332;48.386;2023-08-06T02:27:58;4.82;;;3.78;;
38529;SDS011;24301;54.332;48.386;2023-08-06T02:30:24;4.63;;;4.20;;
38529;SDS011;24301;54.332;48.386;2023-08-06T02:32:50;5.47;;;3.60;;
38529;SDS011;24301;54.332;48.386;2023-08-06T02:35:16;3.75;;;3.30;;
38529;SDS011;24301;54.332;48.386;2023-08-06T02:37:42;4.18;;;3.78;;
38529;SDS011;24301;54.332;48.386;2023-08-06T02:40:08;5.05;;;3.83;;
38529;SDS011;24301;54.332;48.386;2023-08-06T02:42:34;3.92;;;3.55;;
38529;SDS011;24301;54.332;48.386;2023-08-06T02:44:59;5.88;;;3.67;;
38529;SDS011;24301;54.332;48.386;2023-08-06T02:47:25;3.65;;;3.28;;
38529;SDS011;24301;54.332;48.386;2023-08-06T02:49:51;4.68;;;3.75;;
38529;SDS011;24301;54.332;48.386;2023-08-06T02:52:18;4.40;;;3.72;;
38529;SDS011;24301;54.332;48.386;2023-08-06T02:54:43;4.20;;;3.38;;
38529;SDS011;24301;54.332;48.386;2023-08-06T02:57:10;6.43;;;3.83;;
38529;SDS011;24301;54.332;48.386;2023-08-06T02:59:36;3.47;;;3.17;;
38529;SDS011;24301;54.332;48.386;2023-08-06T03:02:09;5.07;;;3.85;;
38529;SDS011;24301;54.332;48.386;2023-08-06T03:04:44;4.78;;;3.65;;
38529;SDS011;24301;54.332;48.386;2023-08-06T03:07:12;3.78;;;3.38;;
38529;SDS011;24301;54.332;48.386;2023-08-06T03:09:47;4.38;;;3.97;;
38529;SDS011;24301;54.332;48.386;2023-08-06T03:12:13;3.78;;;3.40;;
38529;SDS011;24301;54.332;48.386;2023-08-06T03:14:39;3.40;;;3.10;;
38529;SDS011;24301;54.332;48.386;2023-08-06T03:17:07;3.60;;;2.90;;
38529;SDS011;24301;54.332;48.386;2023-08-06T03:19:32;5.38;;;3.97;;
38529;SDS011;24301;54.332;48.386;2023-08-06T03:21:58;4.88;;;3.25;;
38529;SDS011;24301;54.332;48.386;2023-08-06T03:24:24;7.18;;;3.45;;
38529;SDS011;24301;54.332;48.386;2023-08-06T03:26:51;4.80;;;3.67;;
38529;SDS011;24301;54.332;48.386;2023-08-06T03:29:16;5.38;;;3.47;;
38529;SDS011;24301;54.332;48.386;2023-08-06T03:31:43;3.97;;;3.30;;
38529;SDS011;24301;54.332;48.386;2023-08-06T03:34:12;4.85;;;3.70;;
38529;SDS011;24301;54.332;48.386;2023-08-06T03:36:39;5.10;;;3.42;;
38529;SDS011;24301;54.332;48.386;2023-08-06T03:39:06;3.30;;;3.00;;
38529;SDS011;24301;54.332;48.386;2023-08-06T03:41:32;3.95;;;3.42;;
38529;SDS011;24301;54.332;48.386;2023-08-06T03:43:58;5.45;;;3.45;;
38529;SDS011;24301;54.332;48.386;2023-08-06T03:46:26;4.35;;;3.88;;
38529;SDS011;24301;54.332;48.386;2023-08-06T03:48:52;4.57;;;3.30;;
38529;SDS011;24301;54.332;48.386;2023-08-06T03:51:18;5.05;;;3.38;;
38529;SDS011;24301;54.332;48.386;2023-08-06T03:53:45;4.80;;;3.30;;
38529;SDS011;24301;54.332;48.386;2023-08-06T03:56:11;4.18;;;3.78;;
38529;SDS011;24301;54.332;48.386;2023-08-06T03:58:38;4.10;;;3.67;;
38529;SDS011;24301;54.332;48.386;2023-08-06T04:01:04;4.95;;;3.38;;
38529;SDS011;24301;54.332;48.386;2023-08-06T04:03:48;4.80;;;3.65;;
38529;SDS011;24301;54.332;48.386;2023-08-06T04:06:13;3.72;;;3.30;;
38529;SDS011;24301;54.332;48.386;2023-08-06T04:08:39;5.05;;;3.15;;
38529;SDS011;24301;54.332;48.386;2023-08-06T04:11:06;4.75;;;3.30;;
38529;SDS011;24301;54.332;48.386;2023-08-06T04:13:35;3.67;;;3.15;;
38529;SDS011;24301;54.332;48.386;2023-08-06T04:16:03;3.38;;;2.97;;
38529;SDS011;24301;54.332;48.386;2023-08-06T04:18:31;3.88;;;3.28;;
38529;SDS011;24301;54.332;48.386;2023-08-06T04:20:57;4.32;;;3.10;;
38529;SDS011;24301;54.332;48.386;2023-08-06T04:23:23;3.75;;;3.35;;
38529;SDS011;24301;54.332;48.386;2023-08-06T04:25:55;5.00;;;3.30;;
38529;SDS011;24301;54.332;48.386;2023-08-06T04:28:23;3.38;;;3.08;;
38529;SDS011;24301;54.332;48.386;2023-08-06T04:30:49;3.42;;;2.88;;
38529;SDS011;24301;54.332;48.386;2023-08-06T04:33:16;3.80;;;2.80;;
38529;SDS011;24301;54.332;48.386;2023-08-06T04:35:43;2.70;;;2.50;;
38529;SDS011;24301;54.332;48.386;2023-08-06T04:38:10;2.92;;;2.63;;
38529;SDS011;24301;54.332;48.386;2023-08-06T04:40:36;3.20;;;2.97;;
38529;SDS011;24301;54.332;48.386;2023-08-06T04:43:02;3.00;;;2.80;;
38529;SDS011;24301;54.332;48.386;2023-08-06T04:45:31;3.13;;;2.63;;
38529;SDS011;24301;54.332;48.386;2023-08-06T04:47:57;3.67;;;2.80;;
38529;SDS011;24301;54.332;48.386;2023-08-06T04:50:22;3.58;;;2.70;;
38529;SDS011;24301;54.332;48.386;2023-08-06T04:52:48;4.75;;;2.85;;
38529;SDS011;24301;54.332;48.386;2023-08-06T04:55:14;2.88;;;2.55;;
38529;SDS011;24301;54.332;48.386;2023-08-06T04:57:40;6.25;;;5.65;;
38529;SDS011;24301;54.332;48.386;2023-08-06T05:00:06;4.60;;;2.90;;
38529;SDS011;24301;54.332;48.386;2023-08-06T05:02:32;5.03;;;2.53;;
38529;SDS011;24301;54.332;48.386;2023-08-06T05:04:59;3.88;;;2.58;;
38529;SDS011;24301;54.332;48.386;2023-08-06T05:07:25;2.80;;;2.47;;
38529;SDS011;24301;54.332;48.386;2023-08-06T05:09:51;4.03;;;2.83;;
38529;SDS011;24301;54.332;48.386;2023-08-06T05:12:17;4.28;;;2.45;;
38529;SDS011;24301;54.332;48.386;2023-08-06T05:14:42;2.40;;;2.20;;
38529;SDS011;24301;54.332;48.386;2023-08-06T05:17:08;4.20;;;2.03;;
38529;SDS011;24301;54.332;48.386;2023-08-06T05:19:34;3.80;;;2.70;;
38529;SDS011;24301;54.332;48.386;2023-08-06T05:22:00;2.60;;;2.40;;
38529;SDS011;24301;54.332;48.386;2023-08-06T05:24:27;3.88;;;2.88;;
38529;SDS011;24301;54.332;48.386;2023-08-06T05:26:53;2.58;;;2.38;;
38529;SDS011;24301;54.332;48.386;2023-08-06T05:29:18;2.88;;;2.65;;
38529;SDS011;24301;54.332;48.386;2023-08-06T05:31:44;4.60;;;2.35;;
38529;SDS011;24301;54.332;48.386;2023-08-06T05:34:10;2.40;;;2.20;;
38529;SDS011;24301;54.332;48.386;2023-08-06T05:36:36;3.92;;;3.55;;
38529;SDS011;24301;54.332;48.386;2023-08-06T05:39:02;3.33;;;2.80;;
38529;SDS011;24301;54.332;48.386;2023-08-06T05:41:27;3.08;;;2.40;;
38529;SDS011;24301;54.332;48.386;2023-08-06T05:43:53;3.60;;;2.20;;
38529;SDS011;24301;54.332;48.386;2023-08-06T05:46:19;4.70;;;2.70;;
38529;SDS011;24301;54.332;48.386;2023-08-06T05:48:44;2.60;;;2.40;;
38529;SDS011;24301;54.332;48.386;2023-08-06T05:51:10;3.38;;;2.72;;
38529;SDS011;24301;54.332;48.386;2023-08-06T05:53:38;4.10;;;2.55;;
38529;SDS011;24301;54.332;48.386;2023-08-06T05:56:04;3.15;;;2.40;;
38529;SDS011;24301;54.332;48.386;2023-08-06T05:58:30;2.28;;;2.08;;
38529;SDS011;24301;54.332;48.386;2023-08-06T06:00:56;2.47;;;2.28;;
38529;SDS011;24301;54.332;48.386;2023-08-06T06:03:22;2.90;;;2.53;;
38529;SDS011;24301;54.332;48.386;2023-08-06T06:05:47;2.67;;;2.20;;
38529;SDS011;24301;54.332;48.386;2023-08-06T06:08:13;4.43;;;2.30;;
38529;SDS011;24301;54.332;48.386;2023-08-06T06:10:39;2.83;;;2.40;;
38529;SDS011;24301;54.332;48.386;2023-08-06T06:13:05;2.30;;;2.10;;
38529;SDS011;24301;54.332;48.386;2023-08-06T06:15:31;3.83;;;2.20;;
38529;SDS011;24301;54.332;48.386;2023-08-06T06:17:56;2.90;;;2.20;;
38529;SDS011;24301;54.332;48.386;2023-08-06T06:20:22;2.20;;;1.98;;
38529;SDS011;24301;54.332;48.386;2023-08-06T06:22:48;4.35;;;1.80;;
38529;SDS011;24301;54.332;48.386;2023-08-06T06:25:14;2.30;;;2.10;;
38529;SDS011;24301;54.332;48.386;2023-08-06T06:27:39;2.67;;;2.00;;
38529;SDS011;24301;54.332;48.386;2023-08-06T06:30:05;10.68;;;2.63;;
38529;SDS011;24301;54.332;48.386;2023-08-06T06:32:32;2.33;;;2.13;;
38529;SDS011;24301;54.332;48.386;2023-08-06T06:34:59;1.98;;;1.80;;
38529;SDS011;24301;54.332;48.386;2023-08-06T06:37:25;2.10;;;1.90;;
38529;SDS011;24301;54.332;48.386;2023-08-06T06:39:51;2.47;;;2.10;;
38529;SDS011;24301;54.332;48.386;2023-08-06T06:42:16;2.83;;;1.90;;
38529;SDS011;24301;54.332;48.386;2023-08-06T06:44:46;2.25;;;1.75;;
38529;SDS011;24301;54.332;48.386;2023-08-06T06:47:11;2.72;;;1.90;;
38529;SDS011;24301;54.332;48.386;2023-08-06T06:49:37;3.25;;;2.00;;
38529;SDS011;24301;54.332;48.386;2023-08-06T06:52:03;2.70;;;1.92;;
38529;SDS011;24301;54.332;48.386;2023-08-06T06:54:29;2.25;;;1.80;;
38529;SDS011;24301;54.332;48.386;2023-08-06T06:56:55;5.03;;;2.25;;
38529;SDS011;24301;54.332;48.386;2023-08-06T06:59:36;2.00;;;1.80;;
38529;SDS011;24301;54.332;48.386;2023-08-06T07:02:01;2.80;;;2.30;;
38529;SDS011;24301;54.332;48.386;2023-08-06T07:04:27;1.90;;;1.50;;
38529;SDS011;24301;54.332;48.386;2023-08-06T07:06:53;2.03;;;1.92;;
38529;SDS011;24301;54.332;48.386;2023-08-06T07:09:19;2.17;;;1.88;;
38529;SDS011;24301;54.332;48.386;2023-08-06T07:11:45;2.50;;;2.10;;
38529;SDS011;24301;54.332;48.386;2023-08-06T07:14:11;2.50;;;1.80;;
38529;SDS011;24301;54.332;48.386;2023-08-06T07:16:36;2.05;;;1.85;;
38529;SDS011;24301;54.332;48.386;2023-08-06T07:19:02;1.75;;;1.63;;
38529;SDS011;24301;54.332;48.386;2023-08-06T07:21:28;3.67;;;1.65;;
38529;SDS011;24301;54.332;48.386;2023-08-06T07:23:54;3.15;;;2.00;;
38529;SDS011;24301;54.332;48.386;2023-08-06T07:26:20;2.65;;;2.03;;
38529;SDS011;24301;54.332;48.386;2023-08-06T07:28:45;2.25;;;1.70;;
38529;SDS011;24301;54.332;48.386;2023-08-06T07:31:11;2.05;;;1.85;;
38529;SDS011;24301;54.332;48.386;2023-08-06T07:33:37;3.42;;;2.08;;
38529;SDS011;24301;54.332;48.386;2023-08-06T07:36:10;2.20;;;1.65;;
38529;SDS011;24301;54.332;48.386;2023-08-06T07:38:37;1.83;;;1.63;;
38529;SDS011;24301;54.332;48.386;2023-08-06T07:41:03;2.22;;;1.98;;
38529;SDS011;24301;54.332;48.386;2023-08-06T07:43:30;2.55;;;1.90;;
38529;SDS011;24301;54.332;48.386;2023-08-06T07:45:59;2.15;;;1.83;;
38529;SDS011;24301;54.332;48.386;2023-08-06T07:48:26;2.10;;;1.90;;
38529;SDS011;24301;54.332;48.386;2023-08-06T07:50:52;2.40;;;1.92;;
38529;SDS011;24301;54.332;48.386;2023-08-06T07:53:22;1.85;;;1.67;;
38529;SDS011;24301;54.332;48.386;2023-08-06T07:55:58;3.38;;;2.20;;
38529;SDS011;24301;54.332;48.386;2023-08-06T07:58:24;3.38;;;2.17;;
38529;SDS011;24301;54.332;48.386;2023-08-06T08:00:50;1.95;;;1.70;;
38529;SDS011;24301;54.332;48.386;2023-08-06T08:03:16;2.00;;;1.80;;
38529;SDS011;24301;54.332;48.386;2023-08-06T08:05:42;2.80;;;1.80;;
38529;SDS011;24301;54.332;48.386;2023-08-06T08:08:09;2.00;;;1.85;;
38529;SDS011;24301;54.332;48.386;2023-08-06T08:10:35;5.10;;;2.33;;
38529;SDS011;24301;54.332;48.386;2023-08-06T08:13:03;2.20;;;1.98;;
38529;SDS011;24301;54.332;48.386;2023-08-06T08:15:29;2.50;;;2.30;;
38529;SDS011;24301;54.332;48.386;2023-08-06T08:17:56;1.70;;;1.55;;
38529;SDS011;24301;54.332;48.386;2023-08-06T08:20:22;2.33;;;2.13;;
38529;SDS011;24301;54.332;48.386;2023-08-06T08:22:48;3.85;;;2.00;;
38529;SDS011;24301;54.332;48.386;2023-08-06T08:25:15;3.25;;;2.10;;
38529;SDS011;24301;54.332;48.386;2023-08-06T08:27:41;3.28;;;1.90;;
38529;SDS011;24301;54.332;48.386;2023-08-06T08:30:09;4.30;;;2.17;;
38529;SDS011;24301;54.332;48.386;2023-08-06T08:32:35;2.50;;;2.20;;
38529;SDS011;24301;54.332;48.386;2023-08-06T08:35:01;3.22;;;2.80;;
38529;SDS011;24301;54.332;48.386;2023-08-06T08:37:27;2.70;;;2.45;;
38529;SDS011;24301;54.332;48.386;2023-08-06T08:39:52;6.30;;;3.15;;
38529;SDS011;24301;54.332;48.386;2023-08-06T08:42:18;4.07;;;2.08;;
38529;SDS011;24301;54.332;48.386;2023-08-06T08:44:45;3.83;;;2.22;;
38529;SDS011;24301;54.332;48.386;2023-08-06T08:47:11;2.00;;;1.80;;
38529;SDS011;24301;54.332;48.386;2023-08-06T08:49:38;5.60;;;2.22;;
38529;SDS011;24301;54.332;48.386;2023-08-06T08:52:06;5.30;;;2.42;;
38529;SDS011;24301;54.332;48.386;2023-08-06T08:54:36;3.00;;;2.35;;
38529;SDS011;24301;54.332;48.386;2023-08-06T08:57:04;2.95;;;2.10;;
38529;SDS011;24301;54.332;48.386;2023-08-06T08:59:30;2.60;;;2.05;;
38529;SDS011;24301;54.332;48.386;2023-08-06T09:01:58;2.95;;;1.92;;
38529;SDS011;24301;54.332;48.386;2023-08-06T09:04:26;2.85;;;2.20;;
38529;SDS011;24301;54.332;48.386;2023-08-06T09:06:57;2.97;;;2.05;;
38529;SDS011;24301;54.332;48.386;2023-08-06T09:09:42;6.05;;;2.40;;
38529;SDS011;24301;54.332;48.386;2023-08-06T09:12:13;3.13;;;2.08;;
38529;SDS011;24301;54.332;48.386;2023-08-06T09:14:40;5.70;;;2.20;;
38529;SDS011;24301;54.332;48.386;2023-08-06T09:17:07;3.95;;;2.17;;
38529;SDS011;24301;54.332;48.386;2023-08-06T09:19:33;5.53;;;2.20;;
38529;SDS011;24301;54.332;48.386;2023-08-06T09:21:59;2.33;;;1.88;;
38529;SDS011;24301;54.332;48.386;2023-08-06T09:24:24;3.15;;;2.40;;
38529;SDS011;24301;54.332;48.386;2023-08-06T09:26:51;2.60;;;2.20;;
38529;SDS011;24301;54.332;48.386;2023-08-06T09:29:17;1.73;;;1.63;;
38529;SDS011;24301;54.332;48.386;2023-08-06T09:31:44;3.58;;;2.42;;
38529;SDS011;24301;54.332;48.386;2023-08-06T09:34:15;3.70;;;2.85;;
38529;SDS011;24301;54.332;48.386;2023-08-06T09:36:42;2.95;;;1.85;;
38529;SDS011;24301;54.332;48.386;2023-08-06T09:39:30;3.05;;;1.90;;
38529;SDS011;24301;54.332;48.386;2023-08-06T09:41:56;2.97;;;2.55;;
38529;SDS011;24301;54.332;48.386;2023-08-06T09:44:23;3.28;;;2.30;;
38529;SDS011;24301;54.332;48.386;2023-08-06T09:46:51;4.00;;;1.98;;
38529;SDS011;24301;54.332;48.386;2023-08-06T09:49:17;3.42;;;2.20;;
38529;SDS011;24301;54.332;48.386;2023-08-06T09:51:45;3.70;;;2.15;;
38529;SDS011;24301;54.332;48.386;2023-08-06T09:54:12;4.07;;;1.98;;
38529;SDS011;24301;54.332;48.386;2023-08-06T09:56:40;2.90;;;2.08;;
38529;SDS011;24301;54.332;48.386;2023-08-06T09:59:07;3.85;;;2.28;;
38529;SDS011;24301;54.332;48.386;2023-08-06T10:01:34;2.83;;;2.30;;
38529;SDS011;24301;54.332;48.386;2023-08-06T10:04:04;7.10;;;2.55;;
38529;SDS011;24301;54.332;48.386;2023-08-06T10:06:36;2.67;;;2.17;;
38529;SDS011;24301;54.332;48.386;2023-08-06T10:09:06;2.20;;;2.00;;
38529;SDS011;24301;54.332;48.386;2023-08-06T10:11:33;2.45;;;2.22;;
38529;SDS011;24301;54.332;48.386;2023-08-06T10:14:05;2.70;;;2.50;;
38529;SDS011;24301;54.332;48.386;2023-08-06T10:16:40;3.40;;;2.38;;
38529;SDS011;24301;54.332;48.386;2023-08-06T10:19:10;3.10;;;2.05;;
38529;SDS011;24301;54.332;48.386;2023-08-06T10:21:38;3.20;;;2.53;;
38529;SDS011;24301;54.332;48.386;2023-08-06T10:24:06;5.85;;;2.47;;
38529;SDS011;24301;54.332;48.386;2023-08-06T10:26:35;2.10;;;1.80;;
38529;SDS011;24301;54.332;48.386;2023-08-06T10:29:20;4.10;;;2.28;;
38529;SDS011;24301;54.332;48.386;2023-08-06T10:32:03;3.80;;;2.00;;
38529;SDS011;24301;54.332;48.386;2023-08-06T10:37:25;2.85;;;2.28;;
38529;SDS011;24301;54.332;48.386;2023-08-06T10:40:00;3.95;;;2.30;;
38529;SDS011;24301;54.332;48.386;2023-08-06T10:42:28;3.00;;;2.70;;
38529;SDS011;24301;54.332;48.386;2023-08-06T10:45:10;3.03;;;2.22;;
38529;SDS011;24301;54.332;48.386;2023-08-06T10:47:38;3.30;;;1.92;;
38529;SDS011;24301;54.332;48.386;2023-08-06T10:50:07;2.63;;;1.90;;
38529;SDS011;24301;54.332;48.386;2023-08-06T10:52:36;4.13;;;3.25;;
38529;SDS011;24301;54.332;48.386;2023-08-06T10:55:02;3.35;;;2.42;;
38529;SDS011;24301;54.332;48.386;2023-08-06T10:57:29;7.55;;;2.47;;
38529;SDS011;24301;54.332;48.386;2023-08-06T10:59:54;2.65;;;1.90;;
38529;SDS011;24301;54.332;48.386;2023-08-06T11:02:20;2.42;;;1.80;;
38529;SDS011;24301;54.332;48.386;2023-08-06T11:04:46;2.55;;;1.35;;
38529;SDS011;24301;54.332;48.386;2023-08-06T11:07:13;2.47;;;1.33;;
38529;SDS011;24301;54.332;48.386;2023-08-06T11:09:39;2.55;;;1.38;;
38529;SDS011;24301;54.332;48.386;2023-08-06T11:12:09;2.38;;;1.30;;
38529;SDS011;24301;54.332;48.386;2023-08-06T11:14:36;3.05;;;1.33;;
38529;SDS011;24301;54.332;48.386;2023-08-06T11:17:02;1.30;;;1.15;;
38529;SDS011;24301;54.332;48.386;2023-08-06T11:19:28;2.40;;;1.15;;
38529;SDS011;24301;54.332;48.386;2023-08-06T11:21:54;2.67;;;1.10;;
38529;SDS011;24301;54.332;48.386;2023-08-06T11:24:20;1.85;;;1.15;;
38529;SDS011;24301;54.332;48.386;2023-08-06T11:26:46;2.65;;;1.45;;
38529;SDS011;24301;54.332;48.386;2023-08-06T11:29:12;2.45;;;1.40;;
38529;SDS011;24301;54.332;48.386;2023-08-06T11:31:37;4.15;;;1.23;;
38529;SDS011;24301;54.332;48.386;2023-08-06T11:34:03;1.45;;;1.17;;
38529;SDS011;24301;54.332;48.386;2023-08-06T11:36:32;2.35;;;1.33;;
38529;SDS011;24301;54.332;48.386;2023-08-06T11:38:59;3.05;;;1.25;;
38529;SDS011;24301;54.332;48.386;2023-08-06T11:41:29;1.90;;;1.75;;
38529;SDS011;24301;54.332;48.386;2023-08-06T11:43:55;2.67;;;1.13;;
38529;SDS011;24301;54.332;48.386;2023-08-06T11:46:21;1.92;;;1.10;;
38529;SDS011;24301;54.332;48.386;2023-08-06T11:48:55;2.50;;;1.02;;
38529;SDS011;24301;54.332;48.386;2023-08-06T11:51:24;3.10;;;1.30;;
38529;SDS011;24301;54.332;48.386;2023-08-06T11:53:59;1.33;;;1.20;;
38529;SDS011;24301;54.332;48.386;2023-08-06T11:56:25;3.30;;;1.55;;
38529;SDS011;24301;54.332;48.386;2023-08-06T11:58:53;1.48;;;1.20;;
38529;SDS011;24301;54.332;48.386;2023-08-06T12:01:19;2.42;;;1.27;;
38529;SDS011;24301;54.332;48.386;2023-08-06T12:03:45;1.77;;;1.42;;
38529;SDS011;24301;54.332;48.386;2023-08-06T12:06:11;3.47;;;1.17;;
38529;SDS011;24301;54.332;48.386;2023-08-06T12:08:37;3.33;;;1.20;;
38529;SDS011;24301;54.332;48.386;2023-08-06T12:11:03;2.58;;;1.17;;
38529;SDS011;24301;54.332;48.386;2023-08-06T12:13:29;0.75;;;0.75;;
38529;SDS011;24301;54.332;48.386;2023-08-06T12:15:55;1.38;;;1.27;;
38529;SDS011;24301;54.332;48.386;2023-08-06T12:18:22;1.10;;;1.00;;
38529;SDS011;24301;54.332;48.386;2023-08-06T12:20:48;2.25;;;0.90;;
38529;SDS011;24301;54.332;48.386;2023-08-06T12:23:16;2.17;;;1.05;;
38529;SDS011;24301;54.332;48.386;2023-08-06T12:25:42;0.77;;;0.77;;
38529;SDS011;24301;54.332;48.386;2023-08-06T12:28:10;2.13;;;0.82;;
38529;SDS011;24301;54.332;48.386;2023-08-06T12:30:36;3.22;;;1.13;;
38529;SDS011;24301;54.332;48.386;2023-08-06T12:33:01;1.50;;;1.10;;
38529;SDS011;24301;54.332;48.386;2023-08-06T12:35:27;2.55;;;1.20;;
38529;SDS011;24301;54.332;48.386;2023-08-06T12:37:53;1.20;;;1.02;;
38529;SDS011;24301;54.332;48.386;2023-08-06T12:40:20;1.35;;;1.17;;
38529;SDS011;24301;54.332;48.386;2023-08-06T12:42:46;1.98;;;1.55;;
38529;SDS011;24301;54.332;48.386;2023-08-06T12:45:12;2.60;;;1.40;;
38529;SDS011;24301;54.332;48.386;2023-08-06T12:47:38;1.85;;;1.27;;
38529;SDS011;24301;54.332;48.386;2023-08-06T12:50:03;1.90;;;0.90;;
38529;SDS011;24301;54.332;48.386;2023-08-06T12:52:30;2.45;;;1.20;;
38529;SDS011;24301;54.332;48.386;2023-08-06T12:54:55;2.35;;;1.00;;
38529;SDS011;24301;54.332;48.386;2023-08-06T12:57:23;2.17;;;1.10;;
38529;SDS011;24301;54.332;48.386;2023-08-06T12:59:49;3.30;;;1.00;;
38529;SDS011;24301;54.332;48.386;2023-08-06T13:02:15;1.27;;;1.13;;
38529;SDS011;24301;54.332;48.386;2023-08-06T13:04:41;2.03;;;1.30;;
38529;SDS011;24301;54.332;48.386;2023-08-06T13:07:06;1.48;;;1.10;;
38529;SDS011;24301;54.332;48.386;2023-08-06T13:09:32;1.35;;;1.10;;
38529;SDS011;24301;54.332;48.386;2023-08-06T13:11:58;1.17;;;0.90;;
38529;SDS011;24301;54.332;48.386;2023-08-06T13:14:25;1.50;;;1.30;;
38529;SDS011;24301;54.332;48.386;2023-08-06T13:16:51;2.42;;;1.30;;
38529;SDS011;24301;54.332;48.386;2023-08-06T13:19:18;1.30;;;0.85;;
38529;SDS011;24301;54.332;48.386;2023-08-06T13:24:12;2.05;;;1.30;;
38529;SDS011;24301;54.332;48.386;2023-08-06T13:26:38;1.15;;;1.05;;
38529;SDS011;24301;54.332;48.386;2023-08-06T13:29:04;1.80;;;1.40;;
38529;SDS011;24301;54.332;48.386;2023-08-06T13:31:30;1.67;;;1.50;;
38529;SDS011;24301;54.332;48.386;2023-08-06T13:33:55;1.92;;;1.40;;
38529;SDS011;24301;54.332;48.386;2023-08-06T13:36:24;2.25;;;1.42;;
38529;SDS011;24301;54.332;48.386;2023-08-06T13:38:52;1.70;;;1.20;;
38529;SDS011;24301;54.332;48.386;2023-08-06T13:41:19;2.45;;;1.70;;
38529;SDS011;24301;54.332;48.386;2023-08-06T13:43:45;3.53;;;1.48;;
38529;SDS011;24301;54.332;48.386;2023-08-06T13:46:11;4.53;;;2.35;;
38529;SDS011;24301;54.332;48.386;2023-08-06T13:48:45;5.57;;;2.85;;
38529;SDS011;24301;54.332;48.386;2023-08-06T13:51:12;2.35;;;1.63;;
38529;SDS011;24301;54.332;48.386;2023-08-06T13:53:39;4.18;;;1.85;;
38529;SDS011;24301;54.332;48.386;2023-08-06T13:56:05;2.55;;;1.65;;
38529;SDS011;24301;54.332;48.386;2023-08-06T13:58:34;1.33;;;1.13;;
38529;SDS011;24301;54.332;48.386;2023-08-06T14:01:00;2.92;;;1.80;;
38529;SDS011;24301;54.332;48.386;2023-08-06T14:03:26;3.38;;;2.47;;
38529;SDS011;24301;54.332;48.386;2023-08-06T14:05:52;4.43;;;3.08;;
38529;SDS011;24301;54.332;48.386;2023-08-06T14:08:20;3.45;;;2.78;;
38529;SDS011;24301;54.332;48.386;2023-08-06T14:10:46;3.22;;;1.77;;
38529;SDS011;24301;54.332;48.386;2023-08-06T14:13:12;2.20;;;2.03;;
38529;SDS011;24301;54.332;48.386;2023-08-06T14:15:38;4.28;;;2.45;;
38529;SDS011;24301;54.332;48.386;2023-08-06T14:18:07;3.25;;;2.35;;
38529;SDS011;24301;54.332;48.386;2023-08-06T14:20:35;2.10;;;1.60;;
38529;SDS011;24301;54.332;48.386;2023-08-06T14:23:01;3.85;;;1.90;;
38529;SDS011;24301;54.332;48.386;2023-08-06T14:25:27;1.92;;;1.73;;
38529;SDS011;24301;54.332;48.386;2023-08-06T14:27:53;2.28;;;1.80;;
38529;SDS011;24301;54.332;48.386;2023-08-06T14:30:19;3.63;;;2.28;;
38529;SDS011;24301;54.332;48.386;2023-08-06T14:32:45;3.03;;;1.73;;
38529;SDS011;24301;54.332;48.386;2023-08-06T14:35:10;2.63;;;1.30;;
38529;SDS011;24301;54.332;48.386;2023-08-06T14:37:36;2.30;;;1.20;;
38529;SDS011;24301;54.332;48.386;2023-08-06T14:40:05;3.28;;;1.42;;
38529;SDS011;24301;54.332;48.386;2023-08-06T14:42:32;1.85;;;1.63;;
38529;SDS011;24301;54.332;48.386;2023-08-06T14:44:58;1.60;;;1.02;;
38529;SDS011;24301;54.332;48.386;2023-08-06T14:47:23;1.20;;;1.10;;